ADDS METAR Data INFO
IDs: Format: Raw Decoded Include TAF

Data at: 0029 UTC 15 Dec 2017

KAXA 150015Z AUTO 33007KT 10SM SCT030 OVC037 M01/M05 A3005 RMK AO2 PWINO
KAXA 142355Z AUTO 33006KT 10SM BKN031 OVC038 M01/M05 A3005 RMK AO2 PWINO
KAXA 142335Z AUTO 33006KT 10SM BKN039 OVC050 M02/M05 A3004 RMK AO2 PWINO
KAXA 142315Z AUTO 35005KT 10SM SCT039 OVC050 M01/M05 A3004 RMK AO2 PWINO
KAXA 142255Z AUTO 34005KT 10SM SCT038 BKN050 OVC080 M01/M05 A3004 RMK AO2 PWINO
KAXA 142235Z AUTO 33008G13KT 8SM -SN FEW029 SCT040 BKN065 M01/M05 A3004 RMK AO2
KAXA 142215Z AUTO 34009KT 10SM BKN025 BKN037 OVC080 M01/M05 A3004 RMK AO2 PWINO
KAXA 142155Z AUTO 31008KT 10SM OVC024 M00/M05 A3003 RMK AO2 PWINO
KAXA 142135Z AUTO 32007KT 10SM OVC024 M00/M05 A3003 RMK AO2 PWINO
KAXA 142115Z AUTO 31009KT 10SM OVC022 M01/M05 A3003 RMK AO2 PWINO
KAXA 142055Z AUTO 32010KT 10SM OVC022 M01/M05 A3003 RMK AO2 PWINO
KAXA 142035Z AUTO 29008KT 10SM OVC022 M01/M05 A3002 RMK AO2 PWINO
KAXA 142015Z AUTO 30008KT 10SM OVC022 M01/M05 A3002 RMK AO2 PWINO
KAXA 141955Z AUTO 30006G13KT 10SM OVC021 M01/M05 A3002 RMK AO2 PWINO
KAXA 141935Z AUTO 30007KT 10SM OVC020 M01/M05 A3003 RMK AO2 PWINO
KAXA 141915Z AUTO 30008KT 10SM OVC020 M02/M05 A3003 RMK AO2 PWINO
KAXA 141855Z AUTO 29007KT 10SM OVC020 M02/M06 A3004 RMK AO2 PWINO
KAXA 141835Z AUTO 31008KT 10SM OVC019 M02/M06 A3004 RMK AO2 PWINO
KAXA 141815Z AUTO 29009KT 10SM BKN020 OVC025 M02/M06 A3003 RMK AO2 PWINO
KAXA 141755Z AUTO 26006KT 10SM OVC026 M02/M06 A3003 RMK AO2 PWINO
KAXA 141735Z AUTO 24007KT 10SM OVC026 M03/M06 A3003 RMK AO2 PWINO
KAXA 141715Z AUTO 24007KT 10SM OVC025 M03/M06 A3004 RMK AO2 PWINO
KAXA 141655Z AUTO 25007KT 10SM OVC024 M04/M07 A3004 RMK AO2 PWINO
KAXA 141635Z AUTO 23005KT 10SM OVC024 M04/M06 A3005 RMK AO2 PWINO
KAXA 141615Z AUTO 22005KT 9SM OVC024 M05/M07 A3005 RMK AO2 PWINO
KAXA 141555Z AUTO 20004KT 9SM OVC025 M05/M07 A3005 RMK AO2 PWINO
KAXA 141535Z AUTO 17004KT 9SM SCT018 OVC025 M06/M07 A3005 RMK AO2 PWINO
KAXA 141515Z AUTO 00000KT 9SM OVC018 M06/M07 A3005 RMK AO2 PWINO
KAXA 141455Z AUTO 00000KT 9SM OVC017 M06/M07 A3005 RMK AO2 PWINO
KAXA 141435Z AUTO 00000KT 9SM OVC017 M06/M07 A3004 RMK AO2 PWINO
KAXA 141415Z AUTO 00000KT 9SM OVC017 M07/M07 A3004 RMK AO2 PWINO
KAXA 141355Z AUTO 00000KT 10SM OVC017 M07/M07 A3002 RMK AO2 PWINO
KAXA 141335Z AUTO 00000KT 10SM OVC018 M07/M08 A3003 RMK AO2 PWINO
KAXA 141315Z AUTO 04004KT 10SM OVC018 M07/M07 A3003 RMK AO2 PWINO
KAXA 141255Z AUTO 03004KT 10SM OVC018 M07/M07 A3003 RMK AO2 PWINO
KAXA 141235Z AUTO 06005KT 10SM OVC018 M07/M07 A3002 RMK AO2 PWINO
KAXA 141215Z AUTO 00000KT 10SM OVC018 M07/M08 A3002 RMK AO2 PWINO
KAXA 141155Z AUTO 02004KT 10SM OVC019 M07/M08 A3001 RMK AO2 PWINO
KAXA 141135Z AUTO 36004KT 10SM OVC021 M07/M08 A3001 RMK AO2 PWINO
KAXA 141115Z AUTO 33004KT 10SM OVC022 M07/M08 A3000 RMK AO2 PWINO
KAXA 141055Z AUTO 34003KT 10SM OVC022 M07/M08 A2999 RMK AO2 PWINO
KAXA 141035Z AUTO 35004KT 10SM OVC023 M07/M08 A2999 RMK AO2 PWINO
KAXA 141015Z AUTO 35004KT 10SM OVC025 M08/M08 A2999 RMK AO2 PWINO
KAXA 140955Z AUTO 35005KT 10SM OVC025 M08/M08 A2999 RMK AO2 PWINO
KAXA 140935Z AUTO 36005KT 10SM BKN026 M07/M08 A2998 RMK AO2 PWINO
KAXA 140915Z AUTO 35004KT 10SM BKN026 M07/M08 A2999 RMK AO2 PWINO
KAXA 140855Z AUTO 02008KT 10SM OVC025 M06/M07 A2998 RMK AO2 PWINO
KAXA 140835Z AUTO 02007KT 10SM OVC023 M05/M07 A2999 RMK AO2 PWINO
KAXA 140815Z AUTO 01005KT 10SM OVC022 M05/M07 A2998 RMK AO2 PWINO
KAXA 140755Z AUTO 02008KT 10SM OVC023 M05/M07 A2997 RMK AO2 PWINO
KAXA 140735Z AUTO 02010KT 10SM OVC024 M05/M07 A2997 RMK AO2 PWINO
KAXA 140715Z AUTO 02010KT 10SM OVC025 M05/M08 A2997 RMK AO2 PWINO
KAXA 140655Z AUTO 02009KT 10SM OVC025 M05/M08 A2997 RMK AO2 PWINO
KAXA 140635Z AUTO 02010G16KT 10SM OVC026 M05/M08 A2997 RMK AO2 PWINO
KAXA 140615Z AUTO 01010G15KT 10SM OVC026 M04/M08 A2996 RMK AO2 PWINO
KAXA 140555Z AUTO 01010G16KT 10SM OVC025 M04/M07 A2996 RMK AO2 PWINO
KAXA 140535Z AUTO 01007KT 10SM OVC026 M04/M06 A2996 RMK AO2 PWINO
KAXA 140515Z AUTO 01010KT 10SM OVC028 M04/M07 A2996 RMK AO2 PWINO
KAXA 140455Z AUTO 36008KT 10SM SCT020 OVC028 M03/M06 A2995 RMK AO2 PWINO
KAXA 140435Z AUTO 35013KT 10SM BKN017 OVC022 M03/M06 A2994 RMK AO2 PWINO
KAXA 140415Z AUTO 36010G16KT 10SM BKN017 OVC024 M03/M06 A2992 RMK AO2 PWINO
KAXA 140355Z AUTO 36013KT 10SM BKN024 OVC028 M03/M07 A2990 RMK AO2 PWINO
KAXA 140335Z AUTO 36015G20KT 10SM OVC023 M03/M07 A2990 RMK AO2 PWINO
KAXA 140315Z AUTO 36014KT 10SM OVC021 M03/M06 A2990 RMK AO2 PWINO
KAXA 140255Z AUTO 01012G22KT 10SM OVC019 M02/M06 A2989 RMK AO2 PWINO
KAXA 140235Z AUTO 36015G21KT 10SM BKN022 OVC026 M02/M05 A2988 RMK AO2 PWINO
KAXA 140215Z AUTO 35015G23KT 10SM OVC025 M02/M06 A2988 RMK AO2 PWINO
KAXA 140155Z AUTO 35020G27KT 10SM OVC022 M01/M06 A2986 RMK AO2 PWINO
KAXA 140135Z AUTO 34018G25KT 10SM OVC022 M01/M05 A2985 RMK AO2 PWINO
KAXA 140115Z AUTO 35019G32KT 10SM OVC022 M01/M05 A2984 RMK AO2 PWINO
KAXA 140055Z AUTO 34018G27KT 10SM BKN023 OVC028 M01/M05 A2983 RMK AO2 PWINO
KAXA 140035Z AUTO 34021G31KT 10SM BKN025 OVC029 M01/M05 A2983 RMK AO2 PWINO
KAXA 140015Z AUTO 34021G31KT 10SM BKN024 OVC029 M00/M05 A2982 RMK AO2 PWINO
KAXA 132355Z AUTO 34016G27KT 10SM BKN025 OVC031 00/M04 A2981 RMK AO2 PWINO
KAXA 132335Z AUTO 34013G29KT 10SM BKN028 OVC035 00/M04 A2980 RMK AO2 PWINO
KAXA 132315Z AUTO 33026G35KT 10SM BKN030 OVC035 01/M05 A2978 RMK AO2 PWINO
KAXA 132255Z AUTO 33020G31KT 10SM OVC033 01/M05 A2977 RMK AO2 PWINO
KAXA 132235Z AUTO 33023G37KT 10SM OVC033 01/M05 A2976 RMK AO2 PWINO
KAXA 132215Z AUTO 33023G34KT 10SM OVC035 01/M05 A2975 RMK AO2 PWINO
KAXA 132155Z AUTO 33031G49KT 10SM OVC034 01/M05 A2973 RMK AO2 PWINO
KAXA 132135Z AUTO 33029G43KT 10SM OVC031 01/M05 A2972 RMK AO2 PWINO
KAXA 132115Z AUTO 33032G42KT 10SM OVC030 01/M04 A2969 RMK AO2 PWINO
KAXA 132055Z AUTO 34025G40KT 10SM OVC029 02/M04 A2968 RMK AO2 PWINO
KAXA 132035Z AUTO 32028G42KT 10SM OVC029 02/M04 A2967 RMK AO2 PWINO
KAXA 132015Z AUTO 32035G48KT 10SM OVC028 02/M04 A2966 RMK AO2 PWINO
KAXA 131955Z AUTO 32028G47KT 10SM OVC025 02/M03 A2965 RMK AO2 PWINO
KAXA 131935Z AUTO 32030G41KT 10SM OVC023 02/M03 A2964 RMK AO2 PWINO
KAXA 131915Z AUTO 33035G43KT 10SM OVC022 02/M03 A2963 RMK AO2 PWINO
KAXA 131855Z AUTO 33036G49KT 10SM OVC020 01/M03 A2963 RMK AO2 PWINO
KAXA 131835Z AUTO 33027G45KT 10SM OVC019 01/M02 A2963 RMK AO2 PWINO
KAXA 131815Z AUTO 33030G46KT 10SM OVC018 01/M02 A2962 RMK AO2 PWINO
KAXA 131755Z AUTO 33033G41KT 10SM OVC017 01/M02 A2962 RMK AO2 PWINO
KAXA 131735Z AUTO 32026G46KT 10SM OVC014 01/M01 A2962 RMK AO2 PWINO
KAXA 131715Z AUTO 33028G41KT 10SM OVC014 01/00 A2961 RMK AO2 PWINO
KAXA 131655Z AUTO 32026G39KT 10SM OVC015 02/M00 A2960 RMK AO2 PWINO
KAXA 131635Z AUTO 33026G39KT 10SM OVC016 02/M00 A2959 RMK AO2 PWINO
KAXA 131615Z AUTO 33032G44KT 10SM BKN015 OVC020 02/00 A2957 RMK AO2 PWINO
KAXA 131555Z AUTO 33034G42KT 10SM BKN014 OVC020 03/02 A2954 RMK AO2 PWINO
KAXA 131535Z AUTO 33025G37KT 10SM OVC014 03/02 A2953 RMK AO2 PWINO
KAXA 131515Z AUTO 32024G36KT 10SM OVC013 02/02 A2952 RMK AO2 PWINO
KAXA 131455Z AUTO 32021G34KT 8SM -RA BKN015 BKN019 02/02 A2950 RMK AO2
KAXA 131435Z AUTO 32023G36KT 6SM -RA BKN016 02/02 A2949 RMK AO2
KAXA 131415Z AUTO 32026G40KT 7SM -RA BKN017 BKN022 03/03 A2947 RMK AO2
KAXA 131355Z AUTO 32030G42KT 10SM BKN022 OVC028 05/01 A2946 RMK AO2 PWINO
KAXA 131335Z AUTO 31025G35KT 10SM OVC030 05/00 A2944 RMK AO2 PWINO
KAXA 131315Z AUTO 30013G24KT 10SM BKN032 OVC080 05/M01 A2944 RMK AO2 PWINO
KAXA 131255Z AUTO 31022G30KT 10SM SCT080 SCT110 06/M01 A2943 RMK AO2 PWINO
KAXA 131235Z AUTO 30020G28KT 10SM CLR 05/M02 A2943 RMK AO2 PWINO